Time;durP1;ratioP1;P1;durP2;ratioP2;P2;SDS_P1;SDS_P2;PMS_P1;PMS_P2;Temp;Humidity;BMP_temperature;BMP_pressure;BME280_temperature;BME280_humidity;BME280_pressure;Samples;Min_cycle;Max_cycle;Signal;HPM_P1;HPM_P2
2023/09/14 00:00:50;;;;;;;6.63;2.75;;;;;;;;;;5012840;28;20022;-76
2023/09/14 00:03:16;;;;;;;3.70;2.00;;;;;;;;;;5011431;28;20030;-76
2023/09/14 00:05:43;;;;;;;3.40;2.10;;;;;;;;;;5012772;28;20080;-76
2023/09/14 00:08:10;;;;;;;5.88;2.20;;;;;;;;;;5012685;28;20025;-76
2023/09/14 00:10:37;;;;;;;5.07;2.15;;;;;;;;;;5012634;28;20112;-76
2023/09/14 00:13:03;;;;;;;3.28;2.00;;;;;;;;;;5012620;28;20022;-75
2023/09/14 00:15:30;;;;;;;5.00;1.90;;;;;;;;;;5012595;28;20084;-76
2023/09/14 00:17:56;;;;;;;3.60;2.20;;;;;;;;;;5012605;28;20030;-76
2023/09/14 00:20:23;;;;;;;6.80;2.30;;;;;;;;;;5012502;28;20435;-76
2023/09/14 00:22:53;;;;;;;6.45;2.47;;;;;;;;;;5012552;28;20026;-76
2023/09/14 00:25:22;;;;;;;6.28;2.17;;;;;;;;;;5012551;28;20361;-76
2023/09/14 00:27:48;;;;;;;5.18;2.50;;;;;;;;;;5012467;28;20060;-76
2023/09/14 00:30:15;;;;;;;5.43;2.00;;;;;;;;;;5022786;28;20050;-75
2023/09/14 00:32:42;;;;;;;4.47;2.20;;;;;;;;;;5032180;28;20435;-76
2023/09/14 00:35:09;;;;;;;5.35;2.03;;;;;;;;;;5032155;28;20328;-76
2023/09/14 00:37:36;;;;;;;4.72;2.08;;;;;;;;;;5036092;28;20018;-75
2023/09/14 00:40:06;;;;;;;6.88;1.88;;;;;;;;;;5036085;28;20033;-76
2023/09/14 00:42:32;;;;;;;;;;;;;;;;;;5036876;28;20456;-76
2023/09/14 00:44:58;;;;;;;5.97;2.20;;;;;;;;;;5035923;28;19911;-76
2023/09/14 00:47:24;;;;;;;3.05;1.90;;;;;;;;;;5035923;28;20021;-76
2023/09/14 00:49:50;;;;;;;6.03;2.40;;;;;;;;;;5035687;28;20104;-75
2023/09/14 00:52:16;;;;;;;4.88;2.15;;;;;;;;;;5036083;28;20034;-76
2023/09/14 00:54:42;;;;;;;4.28;2.13;;;;;;;;;;5036075;28;20057;-76
2023/09/14 00:57:08;;;;;;;5.53;2.25;;;;;;;;;;5035671;28;20057;-76
2023/09/14 00:59:34;;;;;;;7.03;2.28;;;;;;;;;;5035666;28;20036;-75
2023/09/14 01:02:00;;;;;;;4.32;2.30;;;;;;;;;;5036040;28;20025;-76
2023/09/14 01:04:29;;;;;;;5.43;2.40;;;;;;;;;;5036171;28;20029;-76
2023/09/14 01:06:56;;;;;;;4.25;2.05;;;;;;;;;;5035737;28;20021;-76
2023/09/14 01:09:22;;;;;;;6.00;2.10;;;;;;;;;;5035447;28;20029;-76
2023/09/14 01:11:48;;;;;;;8.23;2.53;;;;;;;;;;5035417;28;20025;-75
2023/09/14 01:14:18;;;;;;;8.13;2.42;;;;;;;;;;5035357;28;20083;-75
2023/09/14 01:16:51;;;;;;;4.07;2.20;;;;;;;;;;5035420;28;20018;-76
2023/09/14 01:19:36;;;;;;;8.38;2.65;;;;;;;;;;5035357;28;20017;-75
2023/09/14 01:22:18;;;;;;;6.85;2.70;;;;;;;;;;5035288;28;20430;-76
2023/09/14 01:24:47;;;;;;;7.60;2.90;;;;;;;;;;5035238;28;20494;-75
2023/09/14 01:27:14;;;;;;;9.48;2.58;;;;;;;;;;5035215;28;20036;-76
2023/09/14 01:29:40;;;;;;;7.18;2.60;;;;;;;;;;5035012;28;20045;-76
2023/09/14 01:32:07;;;;;;;4.85;2.55;;;;;;;;;;5035281;28;20368;-76
2023/09/14 01:34:33;;;;;;;7.32;2.80;;;;;;;;;;5035067;28;20018;-75
2023/09/14 01:37:00;;;;;;;5.63;2.60;;;;;;;;;;5035354;28;20072;-75
2023/09/14 01:39:26;;;;;;;5.88;2.42;;;;;;;;;;5034935;28;20025;-76
2023/09/14 01:41:56;;;;;;;6.35;2.28;;;;;;;;;;5034910;28;20045;-75
2023/09/14 01:44:27;;;;;;;5.72;2.33;;;;;;;;;;5034978;28;20067;-76
2023/09/14 01:46:53;;;;;;;5.90;2.58;;;;;;;;;;5034050;28;20025;-76
2023/09/14 01:49:19;;;;;;;4.95;2.25;;;;;;;;;;5034190;28;20034;-76
2023/09/14 01:51:45;;;;;;;4.13;2.17;;;;;;;;;;5034796;28;20013;-75
2023/09/14 01:54:11;;;;;;;4.50;1.98;;;;;;;;;;5034671;28;20109;-75
2023/09/14 01:56:37;;;;;;;7.32;1.92;;;;;;;;;;5034571;28;20533;-76
2023/09/14 01:59:03;;;;;;;5.35;2.25;;;;;;;;;;5034603;28;20030;-76
2023/09/14 02:01:30;;;;;;;4.60;2.42;;;;;;;;;;5034569;28;20036;-76
2023/09/14 02:03:55;;;;;;;4.15;2.45;;;;;;;;;;5034479;28;20097;-75
2023/09/14 02:06:22;;;;;;;5.20;2.80;;;;;;;;;;5034419;28;20609;-75
2023/09/14 02:08:49;;;;;;;9.10;2.83;;;;;;;;;;5034381;28;20590;-76
2023/09/14 02:11:15;;;;;;;6.30;2.63;;;;;;;;;;5034356;28;20080;-75
2023/09/14 02:13:41;;;;;;;5.20;2.70;;;;;;;;;;5034268;28;20033;-76
2023/09/14 02:16:07;;;;;;;8.05;2.63;;;;;;;;;;5034259;28;20034;-75
2023/09/14 02:18:33;;;;;;;4.88;2.55;;;;;;;;;;5034231;28;20097;-76
2023/09/14 02:20:59;;;;;;;4.68;2.40;;;;;;;;;;5034229;28;20041;-75
2023/09/14 02:23:25;;;;;;;5.35;2.60;;;;;;;;;;5034038;28;20521;-75
2023/09/14 02:25:51;;;;;;;6.63;2.40;;;;;;;;;;5034122;28;20092;-76
2023/09/14 02:28:21;;;;;;;4.10;2.28;;;;;;;;;;5034086;28;20017;-76
2023/09/14 02:30:48;;;;;;;5.77;2.10;;;;;;;;;;5034087;28;20057;-75
2023/09/14 02:33:14;;;;;;;4.85;2.13;;;;;;;;;;5033900;28;20659;-75
2023/09/14 02:35:40;;;;;;;6.72;2.45;;;;;;;;;;5033890;28;20029;-75
2023/09/14 02:38:06;;;;;;;4.13;2.25;;;;;;;;;;5033847;28;20025;-76
2023/09/14 02:40:33;;;;;;;3.85;2.10;;;;;;;;;;5033789;28;20056;-75
2023/09/14 02:42:59;;;;;;;4.35;2.20;;;;;;;;;;5033614;28;20096;-75
2023/09/14 02:45:25;;;;;;;9.45;2.63;;;;;;;;;;5033726;28;20534;-75
2023/09/14 02:47:51;;;;;;;7.60;2.50;;;;;;;;;;5033587;28;20017;-76
2023/09/14 02:50:18;;;;;;;7.03;2.45;;;;;;;;;;5033475;28;20411;-76
2023/09/14 02:52:44;;;;;;;4.80;2.42;;;;;;;;;;5033687;28;20507;-75
2023/09/14 02:55:10;;;;;;;5.57;2.50;;;;;;;;;;5033522;28;20047;-76
2023/09/14 02:57:36;;;;;;;6.82;2.63;;;;;;;;;;5033748;28;20470;-76
2023/09/14 03:00:06;;;;;;;2.70;2.13;;;;;;;;;;5033277;28;20021;-75
2023/09/14 03:02:32;;;;;;;5.40;2.30;;;;;;;;;;5033550;28;20033;-76
2023/09/14 03:04:58;;;;;;;6.95;2.63;;;;;;;;;;5033359;28;20030;-75
2023/09/14 03:07:24;;;;;;;3.53;2.03;;;;;;;;;;5033479;28;20097;-76
2023/09/14 03:09:50;;;;;;;5.35;2.35;;;;;;;;;;5033124;28;20033;-76
2023/09/14 03:12:16;;;;;;;7.05;2.45;;;;;;;;;;5033204;28;20100;-76
2023/09/14 03:14:42;;;;;;;4.80;2.47;;;;;;;;;;5033130;28;20029;-76
2023/09/14 03:17:08;;;;;;;9.20;2.50;;;;;;;;;;5033122;28;20032;-76
2023/09/14 03:19:34;;;;;;;5.65;2.47;;;;;;;;;;5033036;28;20030;-76
2023/09/14 03:22:00;;;;;;;7.13;2.70;;;;;;;;;;5033035;28;20026;-76
2023/09/14 03:24:26;;;;;;;4.93;2.40;;;;;;;;;;5033107;28;20112;-76
2023/09/14 03:26:52;;;;;;;5.60;2.38;;;;;;;;;;5032958;28;20029;-76
2023/09/14 03:29:18;;;;;;;5.68;2.58;;;;;;;;;;5014903;28;20076;-76
2023/09/14 03:31:44;;;;;;;11.02;2.40;;;;;;;;;;5032742;28;20075;-75
2023/09/14 03:34:10;;;;;;;8.00;2.55;;;;;;;;;;5032860;28;20030;-76
2023/09/14 03:36:36;;;;;;;8.38;2.50;;;;;;;;;;5033229;28;20029;-76
2023/09/14 03:39:02;;;;;;;4.78;2.38;;;;;;;;;;5032577;28;20087;-76
2023/09/14 03:41:28;;;;;;;6.07;2.40;;;;;;;;;;5032711;28;20105;-76
2023/09/14 03:43:54;;;;;;;8.15;2.42;;;;;;;;;;5032697;28;20399;-76
2023/09/14 03:46:21;;;;;;;7.15;2.92;;;;;;;;;;5032716;28;20066;-76
2023/09/14 03:48:47;;;;;;;9.40;2.35;;;;;;;;;;5032836;28;20021;-76
2023/09/14 03:51:13;;;;;;;6.45;2.53;;;;;;;;;;5032625;28;20025;-76
2023/09/14 03:53:39;;;;;;;3.90;2.47;;;;;;;;;;5032827;28;20108;-76
2023/09/14 03:56:05;;;;;;;10.95;2.88;;;;;;;;;;5032436;28;20160;-76
2023/09/14 03:58:32;;;;;;;6.53;2.58;;;;;;;;;;5032583;28;20423;-77
2023/09/14 04:00:59;;;;;;;5.20;2.40;;;;;;;;;;5032539;28;20037;-74
2023/09/14 04:03:25;;;;;;;8.40;2.83;;;;;;;;;;5032806;28;20075;-75
2023/09/14 04:05:51;;;;;;;6.45;2.85;;;;;;;;;;5032758;28;20048;-74
2023/09/14 04:08:17;;;;;;;6.90;2.90;;;;;;;;;;5032447;28;20026;-74
2023/09/14 04:10:44;;;;;;;6.32;2.83;;;;;;;;;;5033424;28;20036;-74
2023/09/14 04:13:26;;;;;;;6.28;2.92;;;;;;;;;;5036746;28;20366;-74
2023/09/14 04:15:52;;;;;;;5.40;2.78;;;;;;;;;;5036846;28;20452;-74
2023/09/14 04:18:18;;;;;;;6.55;3.03;;;;;;;;;;5036407;28;20471;-75
2023/09/14 04:20:44;;;;;;;4.50;2.80;;;;;;;;;;5036539;28;20028;-76
2023/09/14 04:23:10;;;;;;;6.38;3.10;;;;;;;;;;5036306;28;20101;-76
2023/09/14 04:25:37;;;;;;;7.57;2.53;;;;;;;;;;5036005;28;20029;-76
2023/09/14 04:28:03;;;;;;;5.70;2.70;;;;;;;;;;5022872;28;20077;-76
2023/09/14 04:30:29;;;;;;;9.18;3.17;;;;;;;;;;5016417;28;20564;-76
2023/09/14 04:32:55;;;;;;;7.15;3.15;;;;;;;;;;5016188;28;20656;-76
2023/09/14 04:35:21;;;;;;;6.00;2.88;;;;;;;;;;5016543;28;20427;-75
2023/09/14 04:37:47;;;;;;;8.45;3.30;;;;;;;;;;5016184;28;20525;-76
2023/09/14 04:40:13;;;;;;;8.15;3.08;;;;;;;;;;5016380;28;20026;-76
2023/09/14 04:42:39;;;;;;;6.53;2.88;;;;;;;;;;5016883;28;20026;-76
2023/09/14 04:45:05;;;;;;;7.28;2.92;;;;;;;;;;5016329;28;20053;-76
2023/09/14 04:47:31;;;;;;;8.57;3.47;;;;;;;;;;5016601;28;20096;-76
2023/09/14 04:49:57;;;;;;;7.70;2.95;;;;;;;;;;5015901;28;20034;-76
2023/09/14 04:52:24;;;;;;;6.80;2.78;;;;;;;;;;5015956;28;20037;-76
2023/09/14 04:54:50;;;;;;;9.25;3.33;;;;;;;;;;5015674;28;20472;-75
2023/09/14 04:57:16;;;;;;;6.90;3.22;;;;;;;;;;5015855;28;20029;-75
2023/09/14 04:59:42;;;;;;;8.85;3.35;;;;;;;;;;5016047;28;20037;-75
2023/09/14 05:02:08;;;;;;;7.63;3.42;;;;;;;;;;5016074;28;20025;-76
2023/09/14 05:04:34;;;;;;;8.18;3.47;;;;;;;;;;5016034;28;20041;-75
2023/09/14 05:07:00;;;;;;;5.65;3.20;;;;;;;;;;5015812;28;20615;-76
2023/09/14 05:09:26;;;;;;;6.60;3.00;;;;;;;;;;5015788;28;20029;-75
2023/09/14 05:11:52;;;;;;;7.05;3.03;;;;;;;;;;5015859;28;20102;-76
2023/09/14 05:14:18;;;;;;;6.65;3.03;;;;;;;;;;5015776;28;20427;-76
2023/09/14 05:16:44;;;;;;;6.72;3.13;;;;;;;;;;5015556;28;20030;-76
2023/09/14 05:19:10;;;;;;;6.07;2.65;;;;;;;;;;5015373;28;20033;-76
2023/09/14 05:21:36;;;;;;;6.65;2.85;;;;;;;;;;5015155;28;20444;-76
2023/09/14 05:24:03;;;;;;;6.22;2.90;;;;;;;;;;5015348;28;20038;-76
2023/09/14 05:26:28;;;;;;;5.07;2.90;;;;;;;;;;5015446;28;20026;-76
2023/09/14 05:28:54;;;;;;;5.60;3.25;;;;;;;;;;5015209;28;20022;-76
2023/09/14 05:31:20;;;;;;;7.60;3.20;;;;;;;;;;5015022;28;20050;-76
2023/09/14 05:33:47;;;;;;;7.20;3.00;;;;;;;;;;5015481;28;20219;-76
2023/09/14 05:36:13;;;;;;;8.15;3.45;;;;;;;;;;5015176;28;20113;-76
2023/09/14 05:38:40;;;;;;;10.43;3.42;;;;;;;;;;5015155;28;20122;-76
2023/09/14 05:41:05;;;;;;;8.40;3.20;;;;;;;;;;5015146;28;20735;-76
2023/09/14 05:43:31;;;;;;;5.70;3.20;;;;;;;;;;5014884;28;20021;-76
2023/09/14 05:45:59;;;;;;;6.00;3.30;;;;;;;;;;5014975;28;20022;-76
2023/09/14 05:48:25;;;;;;;6.63;3.35;;;;;;;;;;5015322;28;20057;-76
2023/09/14 05:50:52;;;;;;;4.55;2.72;;;;;;;;;;5014920;28;20038;-76
2023/09/14 05:55:54;;;;;;;5.63;2.85;;;;;;;;;;4241987;22;20069;-78
2023/09/14 05:58:21;;;;;;;7.85;3.40;;;;;;;;;;4987313;28;20026;-78
2023/09/14 06:00:47;;;;;;;3.83;2.35;;;;;;;;;;5004466;28;20026;-79
2023/09/14 06:03:14;;;;;;;6.05;2.30;;;;;;;;;;5014240;28;20027;-79
2023/09/14 06:05:41;;;;;;;6.07;2.65;;;;;;;;;;5010956;28;20169;-79
2023/09/14 06:08:07;;;;;;;5.45;2.38;;;;;;;;;;5001514;28;20106;-79
2023/09/14 06:10:33;;;;;;;5.75;2.35;;;;;;;;;;5000542;28;20058;-79
2023/09/14 06:12:59;;;;;;;6.50;2.55;;;;;;;;;;5000040;28;20085;-79
2023/09/14 06:15:25;;;;;;;5.57;2.60;;;;;;;;;;4996322;28;20030;-79
2023/09/14 06:17:51;;;;;;;4.93;2.58;;;;;;;;;;4997282;28;20034;-79
2023/09/14 06:20:17;;;;;;;4.57;2.35;;;;;;;;;;4999790;28;20030;-79
2023/09/14 06:22:43;;;;;;;5.93;2.17;;;;;;;;;;4999855;28;20027;-79
2023/09/14 06:25:10;;;;;;;3.70;2.30;;;;;;;;;;4999184;28;20049;-79
2023/09/14 06:27:38;;;;;;;5.00;2.10;;;;;;;;;;4998939;28;20488;-79
2023/09/14 06:30:06;;;;;;;5.63;2.20;;;;;;;;;;4998226;28;20030;-78
2023/09/14 06:32:32;;;;;;;4.82;2.15;;;;;;;;;;4978776;28;20480;-79
2023/09/14 06:34:58;;;;;;;6.03;1.90;;;;;;;;;;4997940;28;20026;-79
2023/09/14 06:37:24;;;;;;;4.22;1.90;;;;;;;;;;4980890;28;20019;-79
2023/09/14 06:39:50;;;;;;;5.43;2.38;;;;;;;;;;4999113;28;20065;-79
2023/09/14 06:42:16;;;;;;;4.53;1.80;;;;;;;;;;4998784;28;20571;-79
2023/09/14 06:44:42;;;;;;;4.85;1.98;;;;;;;;;;4999304;28;20345;-79
2023/09/14 06:47:08;;;;;;;6.25;2.40;;;;;;;;;;5006380;28;20041;-79
2023/09/14 06:49:34;;;;;;;6.85;2.58;;;;;;;;;;5015151;28;20045;-79
2023/09/14 06:52:00;;;;;;;5.65;2.10;;;;;;;;;;4998229;28;20037;-79
2023/09/14 06:54:26;;;;;;;5.68;1.80;;;;;;;;;;5014974;28;20050;-79
2023/09/14 06:56:52;;;;;;;11.95;2.03;;;;;;;;;;5006697;28;20022;-79
2023/09/14 06:59:18;;;;;;;2.15;1.25;;;;;;;;;;4999599;28;20074;-79
2023/09/14 07:01:44;;;;;;;4.18;1.60;;;;;;;;;;4999296;28;20027;-79
2023/09/14 07:04:11;;;;;;;6.53;1.98;;;;;;;;;;4999813;28;20022;-79
2023/09/14 07:06:36;;;;;;;3.83;1.30;;;;;;;;;;4998814;28;20026;-80
2023/09/14 07:09:04;;;;;;;7.00;1.58;;;;;;;;;;4995508;28;20368;-80
2023/09/14 07:11:34;;;;;;;7.40;1.43;;;;;;;;;;4999567;28;20484;-80
2023/09/14 07:14:00;;;;;;;4.07;1.42;;;;;;;;;;4999356;28;20027;-80
2023/09/14 07:16:26;;;;;;;4.15;1.40;;;;;;;;;;4997045;28;20101;-80
2023/09/14 07:18:52;;;;;;;3.72;1.20;;;;;;;;;;4997235;28;20030;-81
2023/09/14 07:21:19;;;;;;;3.45;1.10;;;;;;;;;;4994337;28;20046;-81
2023/09/14 07:23:46;;;;;;;1.95;1.13;;;;;;;;;;4997563;28;20109;-81
2023/09/14 07:26:12;;;;;;;3.05;1.40;;;;;;;;;;4994155;28;20026;-81
2023/09/14 07:28:38;;;;;;;3.40;1.30;;;;;;;;;;5003231;28;20033;-81
2023/09/14 07:31:05;;;;;;;4.43;1.52;;;;;;;;;;5005337;28;20038;-81
2023/09/14 07:33:31;;;;;;;6.18;1.55;;;;;;;;;;5009018;28;20102;-81
2023/09/14 07:35:57;;;;;;;4.25;1.48;;;;;;;;;;5009084;28;20023;-82
2023/09/14 07:38:23;;;;;;;7.28;1.45;;;;;;;;;;5000102;28;20026;-81
2023/09/14 07:40:52;;;;;;;8.43;1.60;;;;;;;;;;5008702;28;20041;-82
2023/09/14 07:43:18;;;;;;;4.30;1.48;;;;;;;;;;5006660;28;20491;-81
2023/09/14 07:45:44;;;;;;;7.43;1.40;;;;;;;;;;4997213;28;20018;-82
2023/09/14 07:48:10;;;;;;;4.00;1.20;;;;;;;;;;4998253;28;20109;-82
2023/09/14 07:50:39;;;;;;;4.75;1.35;;;;;;;;;;4998523;28;20534;-81
2023/09/14 07:53:05;;;;;;;4.32;1.80;;;;;;;;;;4998616;28;20023;-82
2023/09/14 07:55:36;;;;;;;5.80;1.20;;;;;;;;;;4994724;28;20038;-81
2023/09/14 07:58:03;;;;;;;5.63;1.40;;;;;;;;;;4997370;28;20030;-81
2023/09/14 08:00:29;;;;;;;5.60;1.90;;;;;;;;;;4996454;28;21874;-81
2023/09/14 08:02:55;;;;;;;8.35;1.70;;;;;;;;;;4995627;28;20097;-81
2023/09/14 08:05:21;;;;;;;5.57;1.60;;;;;;;;;;4996480;28;20472;-81
2023/09/14 08:07:47;;;;;;;5.32;1.60;;;;;;;;;;4995014;28;20125;-81
2023/09/14 08:10:13;;;;;;;4.07;1.60;;;;;;;;;;4997404;28;20440;-82
2023/09/14 08:12:39;;;;;;;5.45;1.60;;;;;;;;;;4997429;28;20035;-82
2023/09/14 08:15:05;;;;;;;5.93;1.55;;;;;;;;;;4977814;28;20033;-81
2023/09/14 08:17:31;;;;;;;5.72;1.67;;;;;;;;;;4998169;28;20026;-82
2023/09/14 08:19:57;;;;;;;5.10;1.52;;;;;;;;;;4995463;28;20097;-84
2023/09/14 08:22:23;;;;;;;7.32;1.67;;;;;;;;;;4979947;28;20026;-83
2023/09/14 08:24:54;;;;;;;6.30;1.70;;;;;;;;;;4997611;28;20058;-83
2023/09/14 08:27:20;;;;;;;6.32;1.90;;;;;;;;;;4994897;28;20015;-84
2023/09/14 08:29:46;;;;;;;7.03;1.98;;;;;;;;;;4996274;28;20033;-84
2023/09/14 08:32:12;;;;;;;3.85;1.52;;;;;;;;;;4979066;28;20041;-83
2023/09/14 08:34:38;;;;;;;4.47;1.77;;;;;;;;;;4995335;28;20381;-84
2023/09/14 08:37:10;;;;;;;3.30;1.40;;;;;;;;;;4995833;28;20030;-84
2023/09/14 08:39:44;;;;;;;8.05;2.00;;;;;;;;;;4995595;28;20022;-84
2023/09/14 08:42:10;;;;;;;6.75;1.73;;;;;;;;;;4995753;28;20034;-84
2023/09/14 08:44:36;;;;;;;6.45;1.60;;;;;;;;;;4984767;28;20038;-84
2023/09/14 08:47:02;;;;;;;6.63;1.63;;;;;;;;;;5000938;28;20025;-84
2023/09/14 08:49:30;;;;;;;3.83;1.83;;;;;;;;;;5006338;28;20042;-84
2023/09/14 08:51:58;;;;;;;5.15;1.75;;;;;;;;;;4997975;28;20031;-82
2023/09/14 08:54:24;;;;;;;5.78;1.70;;;;;;;;;;4996340;28;20051;-83
2023/09/14 08:56:51;;;;;;;4.55;1.60;;;;;;;;;;4984384;28;20161;-82
2023/09/14 08:59:19;;;;;;;6.10;1.60;;;;;;;;;;4999186;28;20029;-83
2023/09/14 09:01:47;;;;;;;5.70;1.43;;;;;;;;;;4983661;28;20030;-83
2023/09/14 09:04:14;;;;;;;5.63;1.63;;;;;;;;;;4980473;28;20118;-84
2023/09/14 09:06:41;;;;;;;5.45;1.80;;;;;;;;;;4962872;28;20023;-83
2023/09/14 09:09:08;;;;;;;5.70;1.60;;;;;;;;;;4978642;28;20145;-83
2023/09/14 09:11:34;;;;;;;7.78;1.75;;;;;;;;;;4979021;28;20085;-83
2023/09/14 09:14:00;;;;;;;7.07;1.88;;;;;;;;;;4980606;28;20027;-83
2023/09/14 09:16:26;;;;;;;6.28;1.73;;;;;;;;;;4980822;28;20026;-83
2023/09/14 09:19:02;;;;;;;3.65;1.63;;;;;;;;;;4980480;28;20033;-83
2023/09/14 09:24:34;;;;;;;5.45;1.75;;;;;;;;;;4980274;28;20030;-83
2023/09/14 09:27:01;;;;;;;6.60;1.60;;;;;;;;;;4967632;28;20515;-84
2023/09/14 09:29:30;;;;;;;5.60;1.83;;;;;;;;;;4978803;28;20284;-83
2023/09/14 09:31:56;;;;;;;8.40;1.70;;;;;;;;;;4990192;28;20031;-83
2023/09/14 09:34:25;;;;;;;3.33;1.52;;;;;;;;;;4996959;28;20034;-83
2023/09/14 09:36:55;;;;;;;4.22;1.55;;;;;;;;;;4997097;28;20495;-84
2023/09/14 09:39:21;;;;;;;;;;;;;;;;;;4997793;28;20647;-84
2023/09/14 09:41:47;;;;;;;6.13;1.70;;;;;;;;;;4997781;28;20426;-84
2023/09/14 09:44:16;;;;;;;6.53;1.70;;;;;;;;;;4997940;28;20085;-84
2023/09/14 09:46:42;;;;;;;5.05;1.60;;;;;;;;;;4996916;28;20105;-83
2023/09/14 09:49:20;;;;;;;7.32;1.65;;;;;;;;;;4997976;28;20030;-84
2023/09/14 09:51:50;;;;;;;6.57;1.92;;;;;;;;;;5000759;28;20113;-84
2023/09/14 09:54:19;;;;;;;3.78;1.52;;;;;;;;;;4999559;28;20069;-84
2023/09/14 09:56:46;;;;;;;7.90;1.52;;;;;;;;;;5000390;28;20029;-84
2023/09/14 09:59:15;;;;;;;3.97;1.63;;;;;;;;;;5000152;28;20050;-84
2023/09/14 10:01:41;;;;;;;7.57;1.70;;;;;;;;;;4999944;28;20035;-84
2023/09/14 10:04:12;;;;;;;4.20;1.55;;;;;;;;;;4982856;28;20026;-84
2023/09/14 10:06:43;;;;;;;5.78;1.85;;;;;;;;;;5014029;28;20034;-84
2023/09/14 10:09:11;;;;;;;5.85;1.50;;;;;;;;;;5018864;28;20031;-84
2023/09/14 10:11:37;;;;;;;7.07;1.83;;;;;;;;;;5005389;28;20022;-84
2023/09/14 10:14:04;;;;;;;5.95;1.83;;;;;;;;;;4985596;28;20019;-84
2023/09/14 10:16:31;;;;;;;6.15;1.88;;;;;;;;;;5001488;28;20382;-84
2023/09/14 10:18:57;;;;;;;4.40;1.65;;;;;;;;;;5002250;28;20046;-84
2023/09/14 10:21:24;;;;;;;6.63;1.75;;;;;;;;;;5002642;28;20053;-84
2023/09/14 10:23:51;;;;;;;6.15;1.80;;;;;;;;;;5002121;28;20081;-84
2023/09/14 10:26:18;;;;;;;3.83;1.58;;;;;;;;;;5001741;28;20018;-84
2023/09/14 10:28:45;;;;;;;7.22;1.70;;;;;;;;;;5012944;28;20034;-84
2023/09/14 10:31:11;;;;;;;6.00;1.88;;;;;;;;;;5011702;28;20056;-84
2023/09/14 10:33:40;;;;;;;9.75;1.70;;;;;;;;;;4991973;28;20051;-84
2023/09/14 10:36:06;;;;;;;4.53;1.63;;;;;;;;;;5010516;28;20076;-84
2023/09/14 10:38:34;;;;;;;5.93;2.03;;;;;;;;;;5009343;28;20030;-84
2023/09/14 10:41:00;;;;;;;5.90;1.90;;;;;;;;;;4981378;28;20030;-84
2023/09/14 10:43:26;;;;;;;3.72;1.70;;;;;;;;;;4997004;28;20037;-85
2023/09/14 10:45:58;;;;;;;4.25;1.60;;;;;;;;;;4997698;28;20022;-84
2023/09/14 10:48:59;;;;;;;5.55;1.60;;;;;;;;;;4998126;28;20019;-84
2023/09/14 10:51:35;;;;;;;5.82;1.40;;;;;;;;;;4994171;28;20126;-84
2023/09/14 10:54:02;;;;;;;5.85;1.80;;;;;;;;;;4981423;28;20030;-84
2023/09/14 10:56:33;;;;;;;5.72;1.75;;;;;;;;;;4996675;28;20062;-84
2023/09/14 10:59:08;;;;;;;5.38;1.65;;;;;;;;;;4997467;28;20038;-84
2023/09/14 11:01:44;;;;;;;5.90;1.67;;;;;;;;;;4997710;28;20022;-84
2023/09/14 11:04:15;;;;;;;5.70;1.80;;;;;;;;;;4995761;28;20041;-84
2023/09/14 11:06:45;;;;;;;6.88;2.00;;;;;;;;;;4998138;28;20026;-84
2023/09/14 11:09:14;;;;;;;6.00;2.10;;;;;;;;;;4996913;28;20034;-84
2023/09/14 11:11:40;;;;;;;4.90;1.77;;;;;;;;;;4995649;28;20492;-84
2023/09/14 11:14:10;;;;;;;2.90;1.60;;;;;;;;;;4980519;28;20073;-84
2023/09/14 11:16:52;;;;;;;4.65;1.55;;;;;;;;;;4998670;28;20052;-84
2023/09/14 11:19:34;;;;;;;7.40;1.60;;;;;;;;;;4995083;28;20365;-84
2023/09/14 11:22:27;;;;;;;4.82;1.85;;;;;;;;;;4998228;28;20372;-84
2023/09/14 11:24:53;;;;;;;4.55;1.75;;;;;;;;;;4992096;28;20477;-84
2023/09/14 11:27:19;;;;;;;6.45;1.77;;;;;;;;;;5008209;28;20035;-84
2023/09/14 11:29:46;;;;;;;4.18;1.88;;;;;;;;;;5018503;28;20018;-84
2023/09/14 11:32:19;;;;;;;5.95;2.28;;;;;;;;;;5007206;28;20081;-84
2023/09/14 11:34:51;;;;;;;5.78;1.90;;;;;;;;;;5000099;28;20061;-84
2023/09/14 11:37:17;;;;;;;4.85;1.60;;;;;;;;;;4999032;28;20069;-84
2023/09/14 11:39:52;;;;;;;6.15;1.80;;;;;;;;;;5001128;28;20027;-84
2023/09/14 11:42:18;;;;;;;4.38;1.63;;;;;;;;;;5002225;28;20032;-84
2023/09/14 11:44:49;;;;;;;7.90;1.83;;;;;;;;;;5001780;28;20031;-84
2023/09/14 11:47:16;;;;;;;6.07;1.50;;;;;;;;;;4983203;28;20065;-84
2023/09/14 11:49:44;;;;;;;3.42;1.55;;;;;;;;;;5001080;28;20037;-84
2023/09/14 11:52:11;;;;;;;6.07;2.00;;;;;;;;;;5001526;28;20018;-84
2023/09/14 11:54:37;;;;;;;4.07;1.77;;;;;;;;;;4977944;28;20092;-83
2023/09/14 11:57:07;;;;;;;7.47;2.30;;;;;;;;;;5000371;28;20023;-85
2023/09/14 11:59:33;;;;;;;7.25;1.75;;;;;;;;;;4982552;28;20030;-84
2023/09/14 12:02:00;;;;;;;3.38;1.52;;;;;;;;;;4996043;28;20026;-84
2023/09/14 12:04:30;;;;;;;5.35;1.90;;;;;;;;;;4993590;28;20006;-84
2023/09/14 12:06:58;;;;;;;4.85;1.98;;;;;;;;;;5016355;28;20026;-84
2023/09/14 12:09:37;;;;;;;5.85;1.70;;;;;;;;;;5016467;28;20026;-83
2023/09/14 12:12:04;;;;;;;5.43;1.63;;;;;;;;;;5001960;28;20085;-84
2023/09/14 12:15:00;;;;;;;5.57;1.88;;;;;;;;;;4997330;28;20022;-84
2023/09/14 12:17:50;;;;;;;5.82;1.90;;;;;;;;;;4993857;28;20039;-83
2023/09/14 12:20:17;;;;;;;3.60;1.60;;;;;;;;;;4996463;28;20030;-84
2023/09/14 12:22:43;;;;;;;3.65;1.83;;;;;;;;;;4996486;28;20027;-83
2023/09/14 12:25:10;;;;;;;4.97;1.77;;;;;;;;;;4995919;28;20388;-83
2023/09/14 12:27:36;;;;;;;5.30;1.90;;;;;;;;;;4977191;28;20077;-83
2023/09/14 12:30:05;;;;;;;6.50;1.63;;;;;;;;;;4994859;28;20023;-83
2023/09/14 12:32:35;;;;;;;6.25;1.95;;;;;;;;;;4997561;28;20030;-84
2023/09/14 12:35:01;;;;;;;6.95;2.03;;;;;;;;;;4999802;28;20500;-84
2023/09/14 12:37:27;;;;;;;4.40;2.10;;;;;;;;;;4998226;28;20389;-83
2023/09/14 12:39:53;;;;;;;4.93;1.30;;;;;;;;;;4980632;28;20432;-82
2023/09/14 12:42:20;;;;;;;6.43;1.85;;;;;;;;;;4980804;28;20022;-82
2023/09/14 12:44:47;;;;;;;5.60;2.22;;;;;;;;;;4998010;28;20015;-82
2023/09/14 12:47:13;;;;;;;7.20;1.95;;;;;;;;;;4983508;28;20539;-82
2023/09/14 12:49:39;;;;;;;5.95;2.22;;;;;;;;;;4986923;28;20057;-82
2023/09/14 12:52:06;;;;;;;5.05;1.73;;;;;;;;;;5007627;28;20092;-82
2023/09/14 12:54:33;;;;;;;4.60;1.70;;;;;;;;;;4998389;28;20029;-82
2023/09/14 12:56:59;;;;;;;4.65;1.63;;;;;;;;;;4998671;28;20373;-81
2023/09/14 12:59:47;;;;;;;4.38;1.55;;;;;;;;;;4998523;28;20059;-81
2023/09/14 13:02:48;;;;;;;6.78;2.28;;;;;;;;;;4997684;28;20030;-81
2023/09/14 13:05:14;;;;;;;7.53;1.90;;;;;;;;;;4997588;28;20027;-81
2023/09/14 13:10:24;;;;;;;5.07;1.70;;;;;;;;;;5679418;22;20031;-79
2023/09/14 13:15:28;;;;;;;5.80;2.10;;;;;;;;;;4776740;22;20049;-76
2023/09/14 13:17:58;;;;;;;4.35;1.67;;;;;;;;;;5018723;28;20041;-76
2023/09/14 13:20:26;;;;;;;4.90;1.77;;;;;;;;;;5027373;28;20089;-76
2023/09/14 13:22:52;;;;;;;3.20;1.67;;;;;;;;;;5010244;28;20063;-76
2023/09/14 13:25:19;;;;;;;4.60;1.80;;;;;;;;;;4988664;28;20022;-76
2023/09/14 13:27:45;;;;;;;5.07;1.95;;;;;;;;;;4991573;28;20033;-76
2023/09/14 13:30:12;;;;;;;3.88;1.70;;;;;;;;;;5009495;28;20042;-76
2023/09/14 13:32:42;;;;;;;6.07;2.10;;;;;;;;;;5027368;28;20034;-77
2023/09/14 13:35:09;;;;;;;3.47;1.80;;;;;;;;;;5008700;28;20032;-77
2023/09/14 13:37:35;;;;;;;4.68;1.75;;;;;;;;;;5027643;28;20030;-78
2023/09/14 13:40:07;;;;;;;4.72;1.98;;;;;;;;;;5029129;28;20029;-77
2023/09/14 13:42:33;;;;;;;4.22;1.98;;;;;;;;;;5028784;28;20026;-77
2023/09/14 13:44:59;;;;;;;2.92;1.60;;;;;;;;;;5028411;28;20026;-77
2023/09/14 13:47:25;;;;;;;5.30;1.80;;;;;;;;;;5010579;28;20033;-77
2023/09/14 13:49:51;;;;;;;6.32;2.40;;;;;;;;;;5009777;28;20037;-77
2023/09/14 13:52:18;;;;;;;4.47;1.90;;;;;;;;;;5008447;28;20071;-77
2023/09/14 13:54:44;;;;;;;4.63;2.05;;;;;;;;;;5023404;28;20030;-77
2023/09/14 13:57:10;;;;;;;3.65;1.90;;;;;;;;;;5006227;28;20028;-77
2023/09/14 13:59:36;;;;;;;4.70;2.25;;;;;;;;;;5010543;28;20113;-77
2023/09/14 14:02:02;;;;;;;3.95;2.15;;;;;;;;;;5008678;28;20026;-77
2023/09/14 14:04:31;;;;;;;3.33;1.80;;;;;;;;;;5003489;28;20046;-77
2023/09/14 14:06:57;;;;;;;4.33;2.27;;;;;;;;;;4998579;28;20026;-77
2023/09/14 14:09:23;;;;;;;5.65;2.35;;;;;;;;;;4999219;28;20058;-77
2023/09/14 14:11:52;;;;;;;5.13;2.00;;;;;;;;;;5007561;28;20045;-77
2023/09/14 14:14:18;;;;;;;4.10;2.20;;;;;;;;;;4994859;28;20062;-78
2023/09/14 14:16:46;;;;;;;3.92;2.00;;;;;;;;;;4979665;28;20030;-78
2023/09/14 14:19:13;;;;;;;3.75;1.60;;;;;;;;;;4978317;28;20114;-78
2023/09/14 14:21:40;;;;;;;4.88;2.00;;;;;;;;;;4980006;28;20048;-77
2023/09/14 14:24:06;;;;;;;3.58;2.10;;;;;;;;;;4980172;28;20077;-77
2023/09/14 14:26:32;;;;;;;4.78;1.90;;;;;;;;;;4979002;28;20065;-77
2023/09/14 14:28:58;;;;;;;3.63;2.13;;;;;;;;;;4977319;28;20031;-77
2023/09/14 14:31:24;;;;;;;3.65;2.33;;;;;;;;;;4976516;28;20155;-77
2023/09/14 14:33:50;;;;;;;5.90;2.28;;;;;;;;;;4977850;28;20469;-77
2023/09/14 14:36:18;;;;;;;4.65;2.20;;;;;;;;;;4981784;28;20026;-77
2023/09/14 14:38:44;;;;;;;5.25;2.05;;;;;;;;;;4980320;28;20030;-77
2023/09/14 14:41:10;;;;;;;7.38;2.30;;;;;;;;;;4985789;28;20117;-77
2023/09/14 14:43:36;;;;;;;4.55;2.50;;;;;;;;;;4996674;28;20026;-77
2023/09/14 14:46:03;;;;;;;4.72;2.05;;;;;;;;;;4996684;28;20133;-77
2023/09/14 14:48:29;;;;;;;4.65;2.35;;;;;;;;;;4995472;28;20033;-77
2023/09/14 14:50:59;;;;;;;7.40;2.50;;;;;;;;;;4996245;28;20031;-77
2023/09/14 14:53:26;;;;;;;3.60;2.60;;;;;;;;;;4995261;28;20061;-77
2023/09/14 14:55:53;;;;;;;3.65;2.20;;;;;;;;;;4995479;28;20364;-77